Terminal Aerodrome Forecast
Issued by NWS Louisville, KY

Home | Current Version | Previous Version | Text Only | Print | Product List | Glossary On
Versions: 1 2 3 4 5 6 7 8 9 10 11 12 13 14
307
FTUS43 KLMK 112323
TAFLEX
TAF
KLEX 112323Z 1200/1224 VRB03KT P6SM BKN100
     FM121000 VRB03KT P6SM BKN050 PROB30 1212/1217 3SM -SN BR BKN025
     FM121700 26007KT P6SM BKN025=

USA.gov is the U.S. government's official web portal to all federal, state and local government web resources and services.